CheckWX is a tool to help pilots better visualize weather data.  It is not intended as a substitute for an official pre-flight weather briefing.

04:16:12 UTC

KLKV METAR
Lake County Airport
Lakeview, Oregon, USA
Current

23 mins ago

KLKV 180353Z AUTO 33010KT 10SM CLR M11/M12 A3001 RMK AO2 SLP234 T11061117 FZRANO
Observed
Feb-18 @ 03:53 UTC
Wind
  • 330° at 10 KTS
Visibility
10 SM
Flight Rules
VFR
Cloud Levels
  • Clear skies
Temperature
-11°C / 12°F
Dewpoint
-12°C / 10°F
Humidity
92%
Altimeter
30.01" Hg
Pressure
1023.4 hPa
Previous

1 hour ago

KLKV 180253Z AUTO 35006KT 10SM CLR M10/M13 A3000 RMK AO2 SLP231 60000 T11001128 53021 FZRANO
Observed
Feb-18 @ 02:53 UTC
Wind
  • 350° at 6 KTS
Visibility
10 SM
Flight Rules
VFR
Cloud Levels
  • Clear skies
Temperature
-10°C / 14°F
Dewpoint
-13°C / 9°F
Humidity
79%
Altimeter
30" Hg
Pressure
1023.1 hPa
Previous

2 hours ago

KLKV 180153Z AUTO 35008KT 10SM CLR M07/M10 A2997 RMK AO2 SLP210 T10721100 FZRANO
Observed
Feb-18 @ 01:53 UTC
Wind
  • 350° at 8 KTS
Visibility
10 SM
Flight Rules
VFR
Cloud Levels
  • Clear skies
Temperature
-7°C / 19°F
Dewpoint
-10°C / 14°F
Humidity
79%
Altimeter
29.97" Hg
Pressure
1021 hPa